Time;durP1;ratioP1;P1;durP2;ratioP2;P2;SDS_P1;SDS_P2;PMS_P1;PMS_P2;Temp;Humidity;BMP_temperature;BMP_pressure;BME280_temperature;BME280_humidity;BME280_pressure;Samples;Min_cycle;Max_cycle;Signal;HPM_P1;HPM_P2
2023/03/16 00:02:00;;;;;;;35.30;18.60;;;;;;;0.45;90.36;99950.66;5051737;28;20025;-74
2023/03/16 00:04:25;;;;;;;35.20;17.85;;;;;;;0.43;90.92;99953.22;5051581;28;20116;-74
2023/03/16 00:06:50;;;;;;;35.17;17.73;;;;;;;0.41;90.24;99956.63;5051264;28;20021;-74
2023/03/16 00:09:16;;;;;;;28.33;16.13;;;;;;;0.46;89.95;99963.47;5051195;28;20021;-74
2023/03/16 00:11:41;;;;;;;26.48;15.77;;;;;;;0.57;90.40;99983.09;5051223;28;20057;-74
2023/03/16 00:14:07;;;;;;;28.77;16.20;;;;;;;0.49;89.80;99972.84;5051413;28;20435;-74
2023/03/16 00:16:34;;;;;;;30.77;16.98;;;;;;;0.50;90.02;99985.66;5051479;28;20424;-74
2023/03/16 00:19:01;;;;;;;28.67;16.75;;;;;;;0.46;89.51;99985.66;5051030;28;20025;-74
2023/03/16 00:21:29;;;;;;;29.48;14.35;;;;;;;0.34;90.22;99970.28;5051072;28;20028;-74
2023/03/16 00:23:54;;;;;;;27.23;15.52;;;;;;;0.28;90.14;99971.16;5050829;28;20026;-74
2023/03/16 00:26:20;;;;;;;27.17;14.75;;;;;;;0.41;89.88;99992.50;5051400;28;20033;-74
2023/03/16 00:28:45;;;;;;;26.98;16.55;;;;;;;0.43;89.82;99998.50;5051297;28;20384;-74
2023/03/16 00:31:11;;;;;;;27.17;14.82;;;;;;;0.47;89.70;100010.47;5053875;28;20029;-74
2023/03/16 00:33:37;;;;;;;25.77;14.93;;;;;;;0.43;89.88;100016.44;5054520;28;20116;-74
2023/03/16 00:36:06;;;;;;;28.73;15.13;;;;;;;0.23;89.47;99977.97;5054690;28;20033;-74
2023/03/16 00:38:36;;;;;;;27.45;14.05;;;;;;;0.24;90.71;99984.81;5054510;28;20053;-74
2023/03/16 00:41:03;;;;;;;25.63;14.32;;;;;;;0.24;90.51;99989.94;5054780;28;20090;-74
2023/03/16 00:43:31;;;;;;;26.52;15.05;;;;;;;0.45;90.49;100020.69;5054659;28;20025;-74
2023/03/16 00:46:05;;;;;;;22.65;13.32;;;;;;;0.45;90.19;100013.00;5054275;28;20052;-74
2023/03/16 00:48:41;;;;;;;25.77;14.20;;;;;;;0.42;89.75;100023.28;5054722;28;20423;-74
2023/03/16 00:51:08;;;;;;;30.90;16.38;;;;;;;0.23;89.94;99993.34;5054282;28;20037;-74
2023/03/16 00:53:35;;;;;;;29.08;16.65;;;;;;;0.20;89.63;99990.78;5054554;28;20476;-74
2023/03/16 00:56:03;;;;;;;35.33;19.52;;;;;;;0.34;89.96;100024.97;5054166;28;20024;-74
2023/03/16 00:58:29;;;;;;;29.95;15.95;;;;;;;0.27;90.08;100010.44;5054330;28;20017;-74
2023/03/16 01:00:56;;;;;;;24.67;13.80;;;;;;;0.28;90.18;100022.38;5053850;28;20461;-74
2023/03/16 01:03:21;;;;;;;24.42;14.65;;;;;;;0.11;90.39;99995.91;5054075;28;20060;-74
2023/03/16 01:05:47;;;;;;;27.67;13.32;;;;;;;0.24;90.10;100024.09;5053844;28;20036;-74
2023/03/16 01:08:13;;;;;;;24.50;11.95;;;;;;;0.22;90.21;100019.84;5054234;28;20039;-74
2023/03/16 01:10:39;;;;;;;22.92;12.77;;;;;;;0.21;90.26;100023.22;5053899;28;20029;-74
2023/03/16 01:13:06;;;;;;;24.27;13.85;;;;;;;0.24;89.99;100031.78;5054069;28;20029;-74
2023/03/16 01:15:33;;;;;;;24.27;13.57;;;;;;;0.07;90.60;100007.84;5053854;28;20048;-74
2023/03/16 01:17:59;;;;;;;22.05;13.23;;;;;;;-0.01;90.40;100000.13;5053719;28;20025;-74
2023/03/16 01:20:25;;;;;;;24.52;14.20;;;;;;;0.18;90.98;100038.59;5053707;28;20052;-74
2023/03/16 01:22:50;;;;;;;23.63;15.13;;;;;;;0.05;90.98;100014.69;5052414;28;20056;-74
2023/03/16 01:25:17;;;;;;;29.55;15.23;;;;;;;0.04;90.79;100020.63;5053874;28;20052;-74
2023/03/16 01:27:42;;;;;;;26.38;13.90;;;;;;;0.12;90.16;100034.31;5053532;28;20354;-74
2023/03/16 01:30:11;;;;;;;22.80;13.65;;;;;;;0.08;90.31;100039.44;5053690;28;20170;-74
2023/03/16 01:32:36;;;;;;;25.92;13.80;;;;;;;-0.07;90.88;100024.91;5053553;28;20032;-74
2023/03/16 01:35:03;;;;;;;22.40;13.02;;;;;;;0.09;90.45;100054.81;5053514;28;20025;-74
2023/03/16 01:37:29;;;;;;;23.50;12.48;;;;;;;-0.01;90.04;100040.25;5053671;28;20029;-74
2023/03/16 01:39:54;;;;;;;34.58;19.48;;;;;;;-0.03;90.47;100050.50;5053259;28;20055;-74
2023/03/16 01:42:19;;;;;;;40.80;22.83;;;;;;;-0.06;91.02;100055.63;5052360;28;20090;-74
2023/03/16 01:44:55;;;;;;;38.67;19.55;;;;;;;-0.15;90.77;100049.63;5053149;28;20033;-74
2023/03/16 01:47:21;;;;;;;34.03;16.88;;;;;;;-0.21;90.42;100045.34;5053212;28;20047;-74
2023/03/16 01:49:48;;;;;;;30.45;16.10;;;;;;;-0.06;91.91;100075.25;5053272;28;20358;-74
2023/03/16 01:52:17;;;;;;;31.85;18.45;;;;;;;-0.15;91.72;100070.94;5053127;28;20553;-74
2023/03/16 01:54:50;;;;;;;32.97;18.98;;;;;;;-0.13;92.08;100073.50;5053003;28;20032;-74
2023/03/16 01:57:22;;;;;;;40.13;22.65;;;;;;;-0.12;91.63;100078.66;5053077;28;20115;-72
2023/03/16 01:59:53;;;;;;;52.72;31.17;;;;;;;-0.31;91.47;100059.78;5052527;28;20033;-72
2023/03/16 02:02:21;;;;;;;;;;;;;;;-0.23;91.43;100084.56;5053636;28;20183;-72
2023/03/16 02:04:52;;;;;;;45.55;25.70;;;;;;;-0.33;92.19;100060.66;5052777;28;19954;-71
2023/03/16 02:07:19;;;;;;;44.50;23.63;;;;;;;-0.25;92.06;100076.91;5052895;28;20025;-72
2023/03/16 02:09:49;;;;;;;34.83;20.02;;;;;;;-0.17;92.14;100087.16;5052605;28;20370;-72
2023/03/16 02:12:19;;;;;;;38.85;19.70;;;;;;;-0.29;91.81;100060.66;5052653;28;20112;-72
2023/03/16 02:14:49;;;;;;;32.00;17.38;;;;;;;-0.38;91.73;100052.06;5052672;28;20033;-72
2023/03/16 02:17:18;;;;;;;29.02;16.77;;;;;;;-0.46;92.05;100053.75;5052734;28;20055;-72
2023/03/16 02:19:58;;;;;;;27.00;15.40;;;;;;;-0.29;92.06;100086.25;5052712;28;20021;-72
2023/03/16 02:22:23;;;;;;;28.10;15.52;;;;;;;-0.59;92.48;100053.72;5052437;28;20491;-72
2023/03/16 02:24:51;;;;;;;25.90;14.55;;;;;;;-0.33;92.57;100087.09;5052156;28;20025;-72
2023/03/16 02:27:35;;;;;;;25.45;14.25;;;;;;;-0.33;92.23;100087.09;5052700;28;20097;-72
2023/03/16 02:30:12;;;;;;;22.48;13.35;;;;;;;-0.36;92.74;100089.63;5052353;28;20387;-72
2023/03/16 02:32:39;;;;;;;21.98;12.88;;;;;;;-0.52;92.70;100067.38;5052458;28;20080;-72
2023/03/16 02:35:06;;;;;;;24.05;14.30;;;;;;;-0.36;91.94;100093.91;5052116;28;20029;-72
2023/03/16 02:37:32;;;;;;;26.35;14.27;;;;;;;-0.41;91.50;100096.44;5052395;28;20063;-72
2023/03/16 02:39:58;;;;;;;24.45;13.63;;;;;;;-0.42;91.50;100093.84;5052271;28;20132;-72
2023/03/16 02:42:25;;;;;;;22.67;12.95;;;;;;;-0.46;91.46;100102.38;5052387;28;20036;-74
2023/03/16 02:44:56;;;;;;;22.73;12.55;;;;;;;-0.63;92.14;100067.34;5052034;28;20070;-74
2023/03/16 02:47:32;;;;;;;21.83;12.65;;;;;;;-0.49;92.24;100100.66;5052195;28;20041;-74
2023/03/16 02:49:58;;;;;;;24.67;12.93;;;;;;;-0.63;91.56;100082.69;5051812;28;20079;-74
2023/03/16 02:52:23;;;;;;;23.65;12.75;;;;;;;-0.53;92.07;100102.34;5052219;28;20033;-74
2023/03/16 02:54:48;;;;;;;22.27;13.40;;;;;;;-0.71;91.87;100066.44;5051985;28;20043;-74
2023/03/16 02:57:14;;;;;;;26.23;13.75;;;;;;;-0.69;92.05;100079.22;5052058;28;20052;-74
2023/03/16 02:59:40;;;;;;;28.70;15.25;;;;;;;-0.73;92.33;100074.94;5051977;28;20461;-74
2023/03/16 03:02:05;;;;;;;21.90;13.77;;;;;;;-0.60;91.75;100105.72;5051723;28;20358;-74
2023/03/16 03:04:31;;;;;;;26.98;13.32;;;;;;;-0.61;91.38;100105.72;5051915;28;20112;-74
2023/03/16 03:07:02;;;;;;;23.80;13.02;;;;;;;-0.81;91.87;100069.78;5051757;28;20171;-74
2023/03/16 03:09:28;;;;;;;19.80;11.43;;;;;;;-0.82;92.10;100074.03;5050724;28;20404;-74
2023/03/16 03:11:53;;;;;;;26.40;13.93;;;;;;;-0.84;91.84;100074.88;5052032;28;20082;-74
2023/03/16 03:14:18;;;;;;;24.17;12.98;;;;;;;-0.90;91.65;100068.00;5051885;28;20021;-74
2023/03/16 03:16:45;;;;;;;28.63;13.48;;;;;;;-0.80;91.88;100092.81;5052160;28;20072;-74
2023/03/16 03:19:11;;;;;;;21.38;11.80;;;;;;;-0.95;91.79;100072.25;5051759;28;20083;-74
2023/03/16 03:21:37;;;;;;;19.23;11.77;;;;;;;-0.80;92.38;100107.28;5051573;28;20423;-74
2023/03/16 03:24:02;;;;;;;24.83;12.48;;;;;;;-0.83;92.36;100112.41;5051578;28;20526;-72
2023/03/16 03:26:28;;;;;;;20.50;12.25;;;;;;;-0.84;92.42;100110.69;5051733;28;20098;-72
2023/03/16 03:28:53;;;;;;;21.73;12.80;;;;;;;-0.89;93.12;100117.44;5051474;28;20381;-72
2023/03/16 03:31:21;;;;;;;25.45;12.65;;;;;;;-1.03;93.45;100091.78;5051544;28;20021;-71
2023/03/16 03:33:47;;;;;;;23.17;13.15;;;;;;;-0.91;92.74;100122.56;5051788;28;20017;-72
2023/03/16 03:36:12;;;;;;;21.83;12.93;;;;;;;-0.91;92.92;100120.00;5051731;28;20040;-72
2023/03/16 03:38:38;;;;;;;22.45;12.18;;;;;;;-1.00;93.51;100102.06;5051519;28;20057;-71
2023/03/16 03:41:05;;;;;;;24.17;12.05;;;;;;;-1.02;93.20;100096.91;5051181;28;20021;-72
2023/03/16 03:43:31;;;;;;;21.08;11.48;;;;;;;-1.14;92.70;100084.03;5051552;28;20053;-72
2023/03/16 03:45:58;;;;;;;24.42;13.00;;;;;;;-1.10;92.84;100096.00;5051313;28;20130;-72
2023/03/16 03:48:23;;;;;;;24.23;13.30;;;;;;;-1.13;92.78;100092.56;5051947;28;20504;-71
2023/03/16 03:50:49;;;;;;;25.05;12.77;;;;;;;-1.08;93.40;100101.13;5051361;28;20185;-72
2023/03/16 03:53:14;;;;;;;21.05;12.68;;;;;;;-0.98;93.34;100123.34;5051511;28;20484;-72
2023/03/16 03:55:40;;;;;;;24.42;12.15;;;;;;;-1.01;93.39;100120.78;5050025;28;20036;-72
2023/03/16 03:58:05;;;;;;;21.90;11.90;;;;;;;-1.16;93.22;100095.09;5051092;28;20040;-72
2023/03/16 04:00:30;;;;;;;21.60;12.25;;;;;;;-1.00;93.37;100125.06;5051132;28;20033;-72
2023/03/16 04:02:56;;;;;;;22.20;11.70;;;;;;;-1.18;93.47;100095.09;5051264;28;20079;-72
2023/03/16 04:05:21;;;;;;;22.20;12.50;;;;;;;-1.08;93.54;100113.91;5053311;28;20039;-74
2023/03/16 04:07:47;;;;;;;21.73;12.10;;;;;;;-1.02;93.04;100127.59;5055329;28;20039;-74
2023/03/16 04:10:13;;;;;;;22.92;12.20;;;;;;;-1.12;92.58;100120.69;5055076;28;20116;-74
2023/03/16 04:12:38;;;;;;;19.88;12.40;;;;;;;-1.32;92.87;100083.88;5055186;28;20120;-74
2023/03/16 04:15:04;;;;;;;17.98;11.18;;;;;;;-1.08;92.37;100139.47;5054836;28;20421;-74
2023/03/16 04:17:29;;;;;;;20.05;11.43;;;;;;;-1.14;92.67;100135.16;5055292;28;20045;-74
2023/03/16 04:19:54;;;;;;;21.63;11.82;;;;;;;-1.43;92.27;100088.03;5054902;28;20075;-74
2023/03/16 04:22:22;;;;;;;21.77;11.68;;;;;;;-1.19;92.50;100136.81;5055456;28;20021;-74
2023/03/16 04:24:47;;;;;;;22.42;11.80;;;;;;;-1.35;93.04;100117.97;5054991;28;20025;-73
2023/03/16 04:27:13;;;;;;;19.83;11.25;;;;;;;-1.72;92.47;100055.44;5054592;28;20032;-74
2023/03/16 04:29:38;;;;;;;19.88;11.55;;;;;;;-1.47;92.74;100101.66;5054744;28;20052;-74
2023/03/16 04:32:05;;;;;;;23.60;13.15;;;;;;;-1.32;92.74;100135.84;5055038;28;20064;-74
2023/03/16 04:34:32;;;;;;;21.75;12.18;;;;;;;-1.59;92.35;100099.84;5053603;28;20072;-74
2023/03/16 04:36:57;;;;;;;19.15;12.77;;;;;;;-1.24;92.52;100160.63;5054508;28;20060;-74
2023/03/16 04:39:23;;;;;;;23.77;14.48;;;;;;;-1.30;92.55;100159.75;5054653;28;20056;-74
2023/03/16 04:41:48;;;;;;;24.48;13.13;;;;;;;-1.46;92.53;100144.25;5054533;28;20041;-74
2023/03/16 04:44:13;;;;;;;24.48;11.13;;;;;;;-1.54;92.89;100134.78;5054240;28;20083;-74
2023/03/16 04:46:39;;;;;;;18.50;11.90;;;;;;;-1.38;92.53;100157.94;5054731;28;20029;-74
2023/03/16 04:49:08;;;;;;;21.10;12.65;;;;;;;-1.34;92.74;100164.81;5054458;28;20029;-74
2023/03/16 04:51:34;;;;;;;17.70;11.23;;;;;;;-1.55;92.86;100134.78;5054486;28;20087;-74
2023/03/16 04:53:59;;;;;;;24.20;12.32;;;;;;;-1.35;93.18;100170.72;5054250;28;20370;-74
2023/03/16 04:56:25;;;;;;;16.73;10.32;;;;;;;-1.33;93.29;100169.91;5054486;28;20476;-74
2023/03/16 04:58:50;;;;;;;18.23;10.07;;;;;;;-1.40;93.22;100164.72;5054285;28;20108;-74
2023/03/16 05:01:17;;;;;;;18.02;10.35;;;;;;;-1.36;93.26;100171.59;5054213;28;20496;-74
2023/03/16 05:03:42;;;;;;;18.77;11.85;;;;;;;-1.38;93.75;100168.16;5054407;28;20108;-74
2023/03/16 05:06:09;;;;;;;23.65;11.90;;;;;;;-1.49;94.21;100152.72;5054064;28;20109;-74
2023/03/16 05:08:35;;;;;;;21.00;10.98;;;;;;;-1.44;94.47;100161.28;5054099;28;20391;-74
2023/03/16 05:11:00;;;;;;;19.45;10.52;;;;;;;-1.38;94.56;100179.25;5053802;28;20456;-74
2023/03/16 05:13:26;;;;;;;20.83;11.00;;;;;;;-1.43;95.16;100174.91;5054062;28;20060;-73
2023/03/16 05:15:54;;;;;;;17.75;9.60;;;;;;;-1.56;95.07;100146.72;5053783;28;20056;-74
2023/03/16 05:18:20;;;;;;;17.10;9.57;;;;;;;-1.53;93.93;100153.53;5054048;28;20037;-73
2023/03/16 05:20:50;;;;;;;18.88;9.52;;;;;;;-1.36;93.78;100181.81;5053615;28;20500;-74
2023/03/16 05:23:15;;;;;;;19.73;10.30;;;;;;;-1.45;93.91;100143.41;5053682;28;20036;-74
2023/03/16 05:25:41;;;;;;;17.48;10.40;;;;;;;-1.24;94.31;100176.81;5053743;28;20116;-74
2023/03/16 05:28:06;;;;;;;17.65;10.25;;;;;;;-1.36;93.98;100152.00;5053560;28;20032;-74
2023/03/16 05:30:31;;;;;;;13.48;8.52;;;;;;;-1.12;93.69;100182.03;5053804;28;20075;-74
2023/03/16 05:32:57;;;;;;;14.60;9.07;;;;;;;-1.11;94.16;100153.06;5053539;28;20036;-74
2023/03/16 05:35:22;;;;;;;15.77;9.18;;;;;;;-0.86;94.22;100174.59;5053679;28;20021;-74
2023/03/16 05:37:47;;;;;;;16.92;9.30;;;;;;;-0.74;93.96;100157.63;5053842;28;20056;-74
2023/03/16 05:40:17;;;;;;;16.90;8.93;;;;;;;-0.39;92.56;100184.31;5053627;28;20435;-74
2023/03/16 05:42:47;;;;;;;14.82;9.18;;;;;;;-0.33;91.78;100165.59;5053321;28;20064;-74
2023/03/16 05:45:14;;;;;;;14.93;9.77;;;;;;;-0.29;90.85;100134.91;5053117;28;20068;-74
2023/03/16 05:47:41;;;;;;;16.88;8.65;;;;;;;0.11;90.77;100172.63;5053874;28;20039;-74
2023/03/16 05:50:08;;;;;;;20.70;9.35;;;;;;;0.32;90.06;100170.13;5053121;28;20033;-74
2023/03/16 05:52:34;;;;;;;20.15;9.18;;;;;;;0.73;89.39;100203.56;5053330;28;20055;-74
2023/03/16 05:54:59;;;;;;;15.60;7.75;;;;;;;1.06;88.53;100199.34;5053393;28;20021;-74
2023/03/16 05:57:25;;;;;;;14.95;7.80;;;;;;;1.48;87.91;100187.38;5053369;28;20033;-74
2023/03/16 05:59:51;;;;;;;13.07;7.40;;;;;;;1.95;86.23;100173.56;5053227;28;20090;-74
2023/03/16 06:02:17;;;;;;;14.45;7.57;;;;;;;2.53;84.37;100196.47;5052995;28;20039;-74
2023/03/16 06:04:42;;;;;;;13.38;8.43;;;;;;;2.71;82.78;100175.78;5051774;28;20021;-74
2023/03/16 06:07:07;;;;;;;16.55;7.70;;;;;;;3.22;82.14;100190.84;5052751;28;20388;-74
2023/03/16 06:09:33;;;;;;;13.32;6.88;;;;;;;3.59;79.97;100181.09;5053277;28;20025;-74
2023/03/16 06:11:58;;;;;;;14.10;7.82;;;;;;;4.16;78.87;100195.94;5052955;28;20040;-73
2023/03/16 06:14:23;;;;;;;13.90;7.53;;;;;;;4.49;77.89;100208.41;5053073;28;20025;-73
2023/03/16 06:16:49;;;;;;;18.48;8.27;;;;;;;4.68;76.71;100203.03;5052829;28;20045;-73
2023/03/16 06:19:14;;;;;;;14.27;8.07;;;;;;;4.87;75.96;100198.44;5052572;28;20025;-73
2023/03/16 06:21:40;;;;;;;17.58;8.85;;;;;;;5.24;75.50;100193.56;5052536;28;20538;-73
2023/03/16 06:24:07;;;;;;;12.65;8.15;;;;;;;5.94;73.68;100212.19;5052636;28;20024;-73
2023/03/16 06:26:33;;;;;;;11.68;7.18;;;;;;;6.22;72.83;100200.44;5052473;28;20029;-73
2023/03/16 06:28:58;;;;;;;13.00;7.35;;;;;;;6.58;71.94;100218.69;5052172;28;20554;-73
2023/03/16 06:31:24;;;;;;;11.93;7.15;;;;;;;6.84;70.73;100193.97;5052584;28;20025;-74
2023/03/16 06:33:49;;;;;;;11.82;7.57;;;;;;;7.41;69.30;100204.66;5052550;28;20421;-74
2023/03/16 06:36:14;;;;;;;12.65;6.93;;;;;;;7.97;67.86;100215.34;5052240;28;20025;-74
2023/03/16 06:38:40;;;;;;;11.98;6.60;;;;;;;8.03;66.76;100205.69;5052318;28;20032;-74
2023/03/16 06:41:05;;;;;;;12.07;6.95;;;;;;;7.98;66.39;100196.28;5052467;28;20028;-72
2023/03/16 06:43:30;;;;;;;12.10;7.18;;;;;;;8.29;66.05;100198.00;5052568;28;20079;-72
2023/03/16 06:45:57;;;;;;;11.40;6.57;;;;;;;8.61;65.07;100204.91;5052433;28;20074;-74
2023/03/16 06:48:23;;;;;;;12.38;6.38;;;;;;;8.82;64.84;100194.78;5052141;28;20036;-74
2023/03/16 06:50:48;;;;;;;9.73;5.97;;;;;;;8.93;64.17;100203.94;5052321;28;20435;-74
2023/03/16 06:53:13;;;;;;;10.18;5.68;;;;;;;9.34;63.79;100222.56;5051938;28;20548;-74
2023/03/16 06:55:39;;;;;;;10.35;6.05;;;;;;;9.43;63.59;100204.03;5052070;28;20104;-74
2023/03/16 06:58:04;;;;;;;12.85;6.13;;;;;;;9.62;62.67;100185.25;5052008;28;20029;-72
2023/03/16 07:00:30;;;;;;;12.38;6.57;;;;;;;10.11;61.89;100220.81;5052092;28;20021;-72
2023/03/16 07:02:55;;;;;;;12.10;7.25;;;;;;;10.52;61.07;100225.44;5052151;28;20055;-72
2023/03/16 07:05:21;;;;;;;10.00;6.05;;;;;;;10.67;60.33;100204.88;5044992;28;20037;-72
2023/03/16 07:07:46;;;;;;;12.82;6.68;;;;;;;10.77;59.84;100207.97;5048745;28;20237;-72
2023/03/16 07:10:14;;;;;;;11.20;6.88;;;;;;;10.97;59.48;100212.44;5051878;28;20383;-72
2023/03/16 07:12:41;;;;;;;11.80;5.75;;;;;;;11.48;58.52;100224.28;5052113;28;20047;-72
2023/03/16 07:15:06;;;;;;;9.38;5.45;;;;;;;11.79;57.74;100230.81;5051868;28;20028;-73
2023/03/16 07:17:31;;;;;;;9.40;4.82;;;;;;;12.27;56.62;100240.97;5052021;28;20021;-72
2023/03/16 07:19:57;;;;;;;14.15;5.47;;;;;;;12.61;55.80;100242.91;5051874;28;20033;-72
2023/03/16 07:22:22;;;;;;;11.25;5.32;;;;;;;12.83;55.19;100226.22;5051530;28;20059;-73
2023/03/16 07:24:54;;;;;;;10.88;4.43;;;;;;;13.99;53.30;100244.13;5051632;28;20041;-73
2023/03/16 07:27:22;;;;;;;9.93;5.43;;;;;;;15.46;50.42;100238.75;5051760;28;20029;-73
2023/03/16 07:29:47;;;;;;;11.63;5.20;;;;;;;15.78;49.05;100225.59;5051849;28;20039;-73
2023/03/16 07:32:13;;;;;;;7.82;3.90;;;;;;;15.62;49.09;100241.34;5051593;28;20017;-73
2023/03/16 07:34:38;;;;;;;12.52;4.93;;;;;;;16.34;47.83;100242.34;5051781;28;20021;-73
2023/03/16 07:37:04;;;;;;;8.63;4.72;;;;;;;17.49;46.00;100228.06;5051908;28;20036;-74
2023/03/16 07:39:30;;;;;;;10.05;4.43;;;;;;;18.48;43.98;100224.88;5053282;28;20067;-74
2023/03/16 07:41:55;;;;;;;10.15;5.55;;;;;;;19.40;42.77;100246.34;5055662;28;20063;-73
2023/03/16 07:44:21;;;;;;;8.77;4.50;;;;;;;19.93;41.77;100238.00;5055623;28;20060;-74
2023/03/16 07:46:46;;;;;;;7.90;4.82;;;;;;;20.43;40.77;100243.84;5055735;28;20040;-73
2023/03/16 07:49:12;;;;;;;8.93;4.80;;;;;;;20.49;40.13;100232.81;5055459;28;20112;-73
2023/03/16 07:51:37;;;;;;;11.35;4.85;;;;;;;20.67;39.89;100249.06;5055496;28;20454;-73
2023/03/16 07:54:03;;;;;;;10.85;4.47;;;;;;;20.64;39.71;100259.88;5055619;28;20449;-73
2023/03/16 07:56:28;;;;;;;10.88;4.90;;;;;;;20.43;39.64;100238.56;5055635;28;20107;-73
2023/03/16 07:58:53;;;;;;;10.15;4.95;;;;;;;20.16;39.97;100257.41;5055589;28;20025;-73
2023/03/16 08:01:19;;;;;;;8.38;4.18;;;;;;;19.22;40.39;100245.06;5054495;28;20029;-72
2023/03/16 08:03:44;;;;;;;8.82;5.85;;;;;;;17.71;42.19;100266.97;5035410;28;20385;-73
2023/03/16 08:06:10;;;;;;;9.88;5.28;;;;;;;16.08;44.69;100238.69;5035307;28;20461;-73
2023/03/16 08:08:36;;;;;;;7.95;4.72;;;;;;;14.99;46.83;100258.03;5035139;28;20029;-73
2023/03/16 08:11:01;;;;;;;11.73;5.82;;;;;;;14.37;48.37;100272.72;5035257;28;20032;-73
2023/03/16 08:13:27;;;;;;;10.48;5.55;;;;;;;13.64;49.53;100251.97;5035202;28;20056;-73
2023/03/16 08:15:57;;;;;;;10.63;6.25;;;;;;;13.33;50.57;100272.72;5035251;28;20045;-73
2023/03/16 08:18:25;;;;;;;7.90;4.38;;;;;;;12.89;50.91;100284.31;5052317;28;20029;-72
2023/03/16 08:20:51;;;;;;;7.80;4.20;;;;;;;12.36;52.08;100243.16;5054800;28;20033;-72
2023/03/16 08:23:16;;;;;;;9.43;4.13;;;;;;;12.15;52.74;100254.53;5054725;28;20362;-73
2023/03/16 08:25:42;;;;;;;12.07;6.53;;;;;;;11.97;53.45;100274.47;5055154;28;20477;-73
2023/03/16 08:28:08;;;;;;;8.32;4.57;;;;;;;11.72;53.58;100274.63;5054763;28;20090;-73
2023/03/16 08:30:34;;;;;;;12.13;5.70;;;;;;;11.50;53.46;100279.81;5054938;28;20057;-73
2023/03/16 08:33:01;;;;;;;13.93;6.40;;;;;;;11.27;54.18;100264.28;5054769;28;20028;-73
2023/03/16 08:35:28;;;;;;;9.80;3.70;;;;;;;11.10;54.42;100262.31;5054425;28;20040;-73
2023/03/16 08:37:54;;;;;;;12.82;4.72;;;;;;;10.91;54.61;100273.47;5054920;28;20068;-73
2023/03/16 08:40:21;;;;;;;12.90;4.57;;;;;;;10.75;54.72;100274.94;5054637;28;20025;-73
2023/03/16 08:42:49;;;;;;;14.27;4.90;;;;;;;10.53;54.82;100261.00;5054802;28;20028;-73
2023/03/16 08:45:16;;;;;;;10.65;4.18;;;;;;;10.46;55.64;100260.38;5054503;28;20075;-75
2023/03/16 08:47:42;;;;;;;10.60;3.97;;;;;;;10.38;55.21;100272.84;5054569;28;20387;-75
2023/03/16 08:50:11;;;;;;;8.82;3.63;;;;;;;10.14;54.77;100259.72;5053907;28;20041;-75
2023/03/16 08:52:36;;;;;;;10.38;4.70;;;;;;;10.19;56.05;100285.59;5054096;28;20572;-75
2023/03/16 08:55:08;;;;;;;14.38;3.65;;;;;;;9.91;55.56;100250.13;5054577;28;20048;-75
2023/03/16 08:57:34;;;;;;;11.07;3.47;;;;;;;9.89;55.16;100285.75;5054428;28;20028;-73
2023/03/16 09:00:00;;;;;;;9.45;3.63;;;;;;;9.77;55.32;100265.34;5054240;28;20487;-73
2023/03/16 09:02:26;;;;;;;7.68;3.20;;;;;;;9.79;56.05;100280.91;5052762;28;20384;-73
2023/03/16 09:04:51;;;;;;;7.95;3.42;;;;;;;9.61;55.91;100264.19;5054119;28;20040;-73
2023/03/16 09:07:17;;;;;;;8.07;3.40;;;;;;;9.73;55.98;100289.75;5054196;28;20032;-75
2023/03/16 09:09:44;;;;;;;10.73;3.20;;;;;;;9.59;55.45;100291.97;5054289;28;20028;-73
2023/03/16 09:12:11;;;;;;;11.00;3.38;;;;;;;9.52;56.27;100286.09;5053903;28;20025;-73
2023/03/16 09:14:37;;;;;;;9.77;5.00;;;;;;;9.52;55.87;100291.31;5054118;28;20464;-73
2023/03/16 09:17:02;;;;;;;5.30;2.40;;;;;;;9.34;55.00;100273.69;5054238;28;20055;-73
2023/03/16 09:19:28;;;;;;;7.65;2.83;;;;;;;9.27;55.25;100273.06;5053566;28;20107;-73
2023/03/16 09:21:53;;;;;;;9.05;3.38;;;;;;;9.36;54.85;100267.56;5053851;28;20079;-73
2023/03/16 09:24:18;;;;;;;10.38;4.13;;;;;;;9.39;55.48;100279.59;5053720;28;20075;-73
2023/03/16 09:26:44;;;;;;;7.50;4.00;;;;;;;9.43;55.25;100276.00;5053854;28;20036;-73
2023/03/16 09:29:09;;;;;;;17.75;4.93;;;;;;;9.48;55.62;100298.38;5053584;28;20041;-73
2023/03/16 09:31:36;;;;;;;16.00;5.00;;;;;;;9.49;55.21;100300.06;5053761;28;20032;-73
2023/03/16 09:34:01;;;;;;;9.38;4.18;;;;;;;9.41;55.26;100289.06;5053539;28;20076;-73
2023/03/16 09:36:27;;;;;;;8.95;4.10;;;;;;;9.23;55.89;100271.44;5052291;28;20065;-73
2023/03/16 09:38:53;;;;;;;7.82;3.75;;;;;;;9.39;56.05;100287.41;5053675;28;20028;-73
2023/03/16 09:41:43;;;;;;;13.20;3.88;;;;;;;9.31;55.73;100291.97;5053338;28;20100;-73
2023/03/16 09:44:36;;;;;;;6.50;3.20;;;;;;;9.42;55.80;100293.34;5053443;28;20032;-73
2023/03/16 09:47:04;;;;;;;9.80;3.85;;;;;;;9.37;55.65;100287.47;5053750;28;20029;-73
2023/03/16 09:49:36;;;;;;;5.70;3.20;;;;;;;9.23;55.89;100268.84;5053129;28;20495;-72
2023/03/16 09:52:08;;;;;;;10.75;3.80;;;;;;;9.45;55.89;100302.81;5053510;28;20384;-73
2023/03/16 09:54:52;;;;;;;8.63;3.40;;;;;;;9.45;54.79;100295.88;5053214;28;20025;-73
2023/03/16 09:57:49;;;;;;;8.90;3.17;;;;;;;9.44;55.04;100308.94;5053198;28;20075;-73
2023/03/16 10:00:36;;;;;;;6.80;3.42;;;;;;;9.45;55.43;100297.63;5030555;28;20266;-73
2023/03/16 10:03:31;;;;;;;9.43;3.55;;;;;;;9.49;56.13;100309.63;5029767;28;20124;-73
2023/03/16 10:06:00;;;;;;;7.53;3.88;;;;;;;9.35;55.39;100303.97;4952639;29;20118;-73
2023/03/16 10:08:39;;;;;;;6.80;3.17;;;;;;;9.19;55.10;100311.44;4952371;29;20399;-73
2023/03/16 10:11:31;;;;;;;8.52;3.25;;;;;;;9.21;56.09;100307.88;4952479;29;20046;-72
2023/03/16 10:14:22;;;;;;;8.18;3.05;;;;;;;9.24;56.28;100289.59;4952595;28;20133;-73
2023/03/16 10:17:02;;;;;;;8.98;2.92;;;;;;;9.59;56.22;100308.41;4952271;29;20055;-72
2023/03/16 10:19:37;;;;;;;8.85;3.55;;;;;;;9.66;54.89;100322.94;4952255;29;20135;-73
2023/03/16 10:22:16;;;;;;;5.88;3.35;;;;;;;9.53;53.00;100315.59;4952144;29;20042;-73
2023/03/16 10:24:54;;;;;;;9.38;3.75;;;;;;;9.48;53.35;100289.69;4952236;29;20039;-73
2023/03/16 10:27:27;;;;;;;8.07;3.25;;;;;;;9.24;52.71;100314.72;4952300;29;20043;-73
2023/03/16 10:29:52;;;;;;;8.50;3.67;;;;;;;9.23;54.75;100311.28;4952193;29;20051;-73
2023/03/16 10:32:18;;;;;;;9.68;3.20;;;;;;;9.10;52.86;100296.97;4951936;29;20035;-73
2023/03/16 10:34:52;;;;;;;6.65;2.80;;;;;;;9.22;52.71;100304.34;4952131;29;20557;-73
2023/03/16 10:37:19;;;;;;;7.22;3.05;;;;;;;9.17;53.34;100277.66;4981974;28;20089;-73
2023/03/16 10:39:47;;;;;;;6.68;2.75;;;;;;;9.55;53.82;100296.41;4990796;28;20034;-73
2023/03/16 10:42:15;;;;;;;6.05;2.75;;;;;;;9.73;54.17;100307.97;5005486;28;20051;-73
2023/03/16 10:44:41;;;;;;;7.63;2.85;;;;;;;9.53;50.80;100305.19;5052239;28;20022;-73
2023/03/16 10:47:15;;;;;;;4.57;2.55;;;;;;;9.30;50.61;100285.09;5052209;28;20094;-73
2023/03/16 10:49:45;;;;;;;6.45;2.90;;;;;;;9.19;51.66;100311.44;5052390;28;20104;-73
2023/03/16 10:52:42;;;;;;;7.47;3.08;;;;;;;9.04;51.92;100289.34;5052303;28;20066;-73
2023/03/16 10:55:27;;;;;;;7.45;3.28;;;;;;;8.81;52.31;100277.03;5030039;28;20543;-73
2023/03/16 10:57:55;;;;;;;8.57;2.90;;;;;;;8.96;52.60;100299.94;5029832;28;20057;-73
2023/03/16 11:00:23;;;;;;;4.43;2.25;;;;;;;9.10;52.23;100306.47;5029395;28;20041;-73
2023/03/16 11:02:53;;;;;;;6.50;2.55;;;;;;;9.14;52.99;100305.50;5029706;28;20029;-75
2023/03/16 11:05:18;;;;;;;7.47;2.70;;;;;;;9.21;53.35;100301.81;5029502;28;20038;-75
2023/03/16 11:07:56;;;;;;;5.70;2.70;;;;;;;9.28;53.20;100297.28;5029728;28;20056;-75
2023/03/16 11:10:30;;;;;;;5.43;2.50;;;;;;;9.27;53.62;100286.06;5029762;28;20061;-75
2023/03/16 11:13:00;;;;;;;5.90;3.80;;;;;;;8.81;50.96;100302.16;5029528;28;20038;-75
2023/03/16 11:15:35;;;;;;;9.57;3.30;;;;;;;8.08;49.83;100268.66;5028841;28;20065;-73
2023/03/16 11:18:02;;;;;;;10.57;4.43;;;;;;;8.05;50.80;100268.72;5029545;28;20108;-73
2023/03/16 11:20:31;;;;;;;11.60;5.47;;;;;;;7.98;53.32;100268.06;5029217;28;20060;-73
2023/03/16 11:22:59;;;;;;;10.07;4.82;;;;;;;7.96;53.68;100275.00;5029486;28;20529;-73